Terminal Aerodrome Forecast
Issued by NWS Wilmington, NC

Home | Current Version | Previous Version | Text Only | Print | Product List | Glossary On
Versions: 1 2 3 4 5 6 7 8 9 10 11 12 13
000
FTUS42 KILM 011700
TAFMYR
TAF
KMYR 011723Z 0118/0218 17009KT P6SM FEW040 SCT120
     FM012100 18012KT P6SM VCSH SCT030 BKN120
     FM020600 22014G25KT P6SM -RA SCT025 OVC050
      TEMPO 0208/0212 5SM BR SCT015 OVC025
     FM021400 25018G30KT P6SM -RA BKN015 OVC025=

USA.gov is the U.S. government's official web portal to all federal, state and local government web resources and services.